PHX weather

Phoenix Sky Harbor International Airport
Phoenix, Arizona, United States

Public forecast

Using degrees Fahrenheit for public forecast. Weather courtesy of forecast.io.

METAR (pilot weather report)

Retrieved 2017/12/10 22:51 UTC (9 minutes ago):

KPHX 102251Z 06011KT 10SM SCT210 OVC250 24/M13 A3014 RMK AO2 SLP195 T02441133

TAF (pilot weather forecast)

Retrieved 2017/12/10 18:22 UTC (5 hours ago):

TAF KPHX 101720Z 1018/1124 08011G22KT P6SM BKN250 FM102300 09008KT P6SM BKN250 FM112200 25005KT P6SM BKN200